Time;durP1;ratioP1;P1;durP2;ratioP2;P2;SDS_P1;SDS_P2;PMS_P1;PMS_P2;Temp;Humidity;BMP_temperature;BMP_pressure;BME280_temperature;BME280_humidity;BME280_pressure;Samples;Min_cycle;Max_cycle;Signal;HPM_P1;HPM_P2
2023/05/07 08:52:03;;;;;;;134.32;65.60;;;;;;;16.96;100.00;101604.25;6073586;23;20042;-69
2023/05/07 08:56:59;;;;;;;129.68;63.42;;;;;;;17.19;100.00;101601.81;6046206;23;20030;-56
2023/05/07 09:02:00;;;;;;;115.82;59.40;;;;;;;17.14;99.28;101608.78;6045658;23;20034;-70
2023/05/07 09:04:28;;;;;;;115.57;56.67;;;;;;;17.08;98.07;101606.09;6070170;23;20544;-70
2023/05/07 09:09:21;;;;;;;122.95;54.38;;;;;;;17.27;99.78;101614.16;6058734;23;20099;-59
2023/05/07 09:11:47;;;;;;;118.80;56.28;;;;;;;17.30;100.00;101603.66;6086290;23;20014;-58
2023/05/07 09:16:42;;;;;;;109.13;54.88;;;;;;;17.42;98.81;101609.00;6058986;23;20463;-58
2023/05/07 09:21:40;;;;;;;108.28;54.00;;;;;;;17.44;97.27;101612.53;6075356;23;20018;-57
2023/05/07 09:24:05;;;;;;;110.68;55.33;;;;;;;17.52;97.72;101605.59;6074781;23;20339;-59
2023/05/07 09:26:32;;;;;;;90.20;48.30;;;;;;;17.55;95.86;101610.88;6086878;23;20033;-59
2023/05/07 09:28:58;;;;;;;107.60;56.95;;;;;;;17.54;98.16;101614.38;6080443;23;20014;-59
2023/05/07 09:31:24;;;;;;;106.78;55.47;;;;;;;17.50;95.16;101612.56;6074209;23;20436;-70
2023/05/07 09:36:21;;;;;;;108.25;54.72;;;;;;;17.53;97.00;101612.59;6039688;23;20019;-70
2023/05/07 09:38:46;;;;;;;101.55;51.50;;;;;;;17.64;96.70;101615.31;6085518;23;20015;-57
2023/05/07 09:41:12;;;;;;;99.20;51.55;;;;;;;17.75;97.64;101619.78;6083905;23;20038;-70
2023/05/07 09:43:39;;;;;;;94.22;51.03;;;;;;;17.82;97.86;101622.44;6086738;23;20042;-57
2023/05/07 09:46:16;;;;;;;103.30;53.72;;;;;;;17.86;97.73;101618.09;6088137;23;20033;-57
2023/05/07 09:53:48;;;;;;;97.28;50.67;;;;;;;18.00;95.09;101621.72;6079365;23;20042;-56
2023/05/07 09:58:49;;;;;;;93.10;49.47;;;;;;;18.26;95.44;101618.31;6081152;23;20022;-69
2023/05/07 10:01:17;;;;;;;89.75;48.42;;;;;;;18.23;91.69;101619.19;6084165;23;20077;-58
2023/05/07 10:03:44;;;;;;;86.53;47.95;;;;;;;18.28;93.24;101626.22;6086133;23;20667;-69
2023/05/07 10:06:10;;;;;;;83.65;47.22;;;;;;;18.24;89.52;101623.56;6085209;23;20108;-57
2023/05/07 10:08:36;;;;;;;84.30;47.55;;;;;;;18.06;87.76;101624.38;6078517;23;20018;-57
2023/05/07 10:11:03;;;;;;;82.40;46.65;;;;;;;18.10;90.54;101622.63;6089046;23;20073;-57
2023/05/07 10:13:29;;;;;;;87.47;47.22;;;;;;;18.23;91.79;101621.84;6077129;23;20027;-56
2023/05/07 10:15:55;;;;;;;84.40;47.15;;;;;;;18.40;90.59;101626.28;6072974;23;20002;-69
2023/05/07 10:26:00;;;;;;;76.80;43.92;;;;;;;18.73;89.07;101617.59;6061312;23;20035;-69
2023/05/07 10:28:31;;;;;;;82.80;46.33;;;;;;;18.68;87.77;101619.31;6070898;23;20340;-70
2023/05/07 10:33:30;;;;;;;93.53;52.20;;;;;;;18.82;93.47;101613.22;6064942;23;20041;-60
2023/05/07 10:36:00;;;;;;;91.90;51.22;;;;;;;18.93;89.79;101616.78;6079215;23;20484;-69
2023/05/07 10:41:01;;;;;;;83.80;46.30;;;;;;;18.96;85.32;101614.16;6079233;23;20031;-56
2023/05/07 10:43:39;;;;;;;74.20;45.42;;;;;;;18.85;86.89;101614.09;6088020;23;20019;-70
2023/05/07 10:49:11;;;;;;;66.38;39.97;;;;;;;19.07;91.19;101615.03;6074374;23;20046;-57
2023/05/07 10:51:37;;;;;;;75.40;45.07;;;;;;;18.98;86.48;101616.78;6067196;23;20029;-57
2023/05/07 10:54:11;;;;;;;77.50;45.35;;;;;;;19.15;91.85;101611.50;6085092;23;20019;-59
2023/05/07 10:59:30;;;;;;;72.50;44.03;;;;;;;19.23;86.58;101615.94;6062764;23;20030;-57
2023/05/07 11:02:02;;;;;;;74.75;45.35;;;;;;;19.24;85.54;101617.66;6088431;23;20018;-58
2023/05/07 11:07:05;;;;;;;69.78;43.17;;;;;;;19.63;85.43;101613.22;6069143;23;20038;-59
2023/05/07 11:09:52;;;;;;;67.95;42.28;;;;;;;19.81;88.13;101614.09;6087194;23;20421;-70
2023/05/07 11:12:36;;;;;;;72.35;43.28;;;;;;;19.95;88.36;101620.25;6084496;23;20022;-60
2023/05/07 11:15:12;;;;;;;67.90;40.60;;;;;;;20.02;86.30;101622.88;6088975;23;20014;-59
2023/05/07 11:20:12;;;;;;;59.85;37.72;;;;;;;19.69;79.45;101617.63;5649421;23;10287427;-70
2023/05/07 11:22:39;;;;;;;66.60;40.40;;;;;;;19.68;82.66;101609.69;6086759;23;20085;-58
2023/05/07 11:25:06;;;;;;;60.90;39.60;;;;;;;19.79;85.04;101618.53;6083399;23;20019;-70
2023/05/07 11:27:32;;;;;;;65.35;39.80;;;;;;;19.88;83.20;101623.78;6079692;23;20101;-59
2023/05/07 11:29:58;;;;;;;61.38;40.20;;;;;;;19.91;80.35;101623.78;6084264;23;20014;-60
2023/05/07 11:32:24;;;;;;;53.90;33.75;;;;;;;19.93;79.92;101622.03;6109445;23;20334;-70
2023/05/07 11:34:59;;;;;;;63.00;36.63;;;;;;;20.00;81.96;101627.28;6072040;23;20034;-70
2023/05/07 11:40:07;;;;;;;38.70;24.83;;;;;;;20.20;79.31;101622.81;6077038;23;20023;-57
2023/05/07 11:44:58;;;;;;;38.95;25.98;;;;;;;20.24;77.87;101618.38;6071312;23;20085;-55
2023/05/07 11:47:25;;;;;;;43.22;27.70;;;;;;;20.28;78.15;101609.56;6087839;23;20021;-57
2023/05/07 11:49:52;;;;;;;39.80;26.52;;;;;;;20.25;72.66;101617.50;6088223;23;20081;-57
2023/05/07 11:54:59;;;;;;;40.60;26.08;;;;;;;20.12;75.53;101617.56;6076144;23;20457;-68
2023/05/07 11:57:25;;;;;;;36.13;25.85;;;;;;;20.20;78.74;101614.84;6084777;23;20022;-54
2023/05/07 11:59:57;;;;;;;40.45;23.67;;;;;;;20.38;80.60;101615.66;6097247;23;20357;-56
2023/05/07 12:02:24;;;;;;;45.42;27.70;;;;;;;20.55;80.26;101608.53;6075108;23;20399;-68
2023/05/07 12:07:19;;;;;;;35.03;25.10;;;;;;;20.67;75.75;101612.91;6090298;23;20046;-70
2023/05/07 12:09:47;;;;;;;38.38;23.55;;;;;;;20.69;79.21;101618.19;6117326;23;20014;-69
2023/05/07 12:14:45;;;;;;;35.50;24.17;;;;;;;20.45;71.78;101617.41;6083965;23;20037;-57
2023/05/07 12:17:13;;;;;;;36.53;24.17;;;;;;;20.42;73.94;101620.97;6078803;23;20014;-69
2023/05/07 12:22:08;;;;;;;33.90;22.65;;;;;;;20.52;79.33;101610.31;6081351;23;20019;-70
2023/05/07 12:29:51;;;;;;;32.70;23.23;;;;;;;20.27;76.17;101635.13;6067186;23;20030;-70
2023/05/07 12:32:18;;;;;;;36.83;25.10;;;;;;;20.30;76.59;101637.75;6088175;23;20357;-69
2023/05/07 12:34:44;;;;;;;33.65;23.45;;;;;;;20.36;77.56;101630.69;6087349;23;20028;-69
2023/05/07 12:37:10;;;;;;;34.80;22.90;;;;;;;20.20;76.54;101633.38;6114575;23;20337;-69
2023/05/07 12:39:37;;;;;;;34.88;23.45;;;;;;;20.11;74.03;101641.38;6092848;23;20046;-55
2023/05/07 12:44:33;;;;;;;34.47;24.48;;;;;;;19.86;75.70;101662.59;6075915;23;20051;-70
2023/05/07 12:47:02;;;;;;;10.13;6.85;;;;;;;19.64;70.12;101673.16;6077432;23;20113;-69
2023/05/07 12:49:27;;;;;;;7.68;4.80;;;;;;;19.31;69.19;101671.41;6075370;23;20023;-58
2023/05/07 12:51:54;;;;;;;8.38;5.13;;;;;;;19.04;72.26;101678.41;6086074;23;20013;-58
2023/05/07 12:54:33;;;;;;;8.48;5.18;;;;;;;18.76;73.62;101688.88;6076936;23;20101;-69
2023/05/07 12:59:49;;;;;;;34.95;20.25;;;;;;;17.88;81.92;101693.66;6094227;23;20393;-69
2023/05/07 13:02:15;;;;;;;13.10;7.43;;;;;;;17.53;84.96;101702.19;6086559;23;20010;-69
2023/05/07 13:04:41;;;;;;;14.85;7.93;;;;;;;17.25;86.71;101711.59;6084256;23;20025;-70
2023/05/07 13:07:06;;;;;;;19.40;9.27;;;;;;;17.01;89.39;101722.75;6083717;23;20112;-69
2023/05/07 13:09:31;;;;;;;17.98;8.30;;;;;;;16.90;90.19;101727.00;6084756;23;20006;-69
2023/05/07 13:12:01;;;;;;;21.88;8.60;;;;;;;16.51;93.10;101730.03;6083180;23;20003;-69
2023/05/07 13:14:29;;;;;;;31.20;10.82;;;;;;;16.27;95.59;101721.81;6057266;23;20382;-70
2023/05/07 13:16:55;;;;;;;16.93;8.80;;;;;;;15.95;96.06;101723.09;6082091;23;20041;-70
2023/05/07 13:19:20;;;;;;;17.83;8.48;;;;;;;15.96;98.65;101723.94;6077676;23;20447;-70
2023/05/07 13:21:45;;;;;;;17.38;8.50;;;;;;;16.05;97.08;101737.25;6079149;23;20438;-69
2023/05/07 13:24:11;;;;;;;17.35;8.07;;;;;;;16.12;97.72;101735.59;6082301;23;20006;-70
2023/05/07 13:26:36;;;;;;;14.68;7.82;;;;;;;16.02;95.05;101737.22;6058944;23;20020;-70
2023/05/07 13:29:01;;;;;;;12.98;8.40;;;;;;;16.02;97.21;101744.19;6085654;23;20202;-70
2023/05/07 13:31:27;;;;;;;16.98;10.35;;;;;;;15.92;98.56;101737.94;6086574;23;20319;-70
2023/05/07 13:33:52;;;;;;;17.08;10.55;;;;;;;15.93;100.00;101743.22;6085742;23;20077;-70
2023/05/07 13:36:18;;;;;;;19.67;11.68;;;;;;;15.92;100.00;101736.19;6087312;23;20331;-70
2023/05/07 13:38:43;;;;;;;18.98;11.05;;;;;;;16.02;100.00;101731.06;6062800;23;20342;-70
2023/05/07 13:41:35;;;;;;;16.80;11.45;;;;;;;16.05;100.00;101728.47;6086801;23;20038;-70
2023/05/07 13:44:00;;;;;;;24.20;15.13;;;;;;;16.05;100.00;101731.09;6085726;23;20596;-70
2023/05/07 13:46:25;;;;;;;28.10;19.23;;;;;;;15.99;100.00;101734.53;6086073;23;20015;-70
2023/05/07 13:48:50;;;;;;;26.55;17.10;;;;;;;15.85;100.00;101726.44;6084338;23;20057;-70
2023/05/07 13:51:16;;;;;;;26.75;16.77;;;;;;;15.81;100.00;101728.13;6086636;23;20081;-71
2023/05/07 13:53:42;;;;;;;26.55;18.52;;;;;;;15.94;100.00;101725.69;6087149;23;20052;-71
2023/05/07 13:56:07;;;;;;;29.30;19.02;;;;;;;15.99;100.00;101722.28;6087310;23;20647;-70
2023/05/07 13:58:36;;;;;;;29.40;20.13;;;;;;;16.16;100.00;101730.41;6088490;23;20085;-70
2023/05/07 14:01:11;;;;;;;28.20;19.63;;;;;;;16.25;100.00;101720.88;6088781;23;20078;-71
2023/05/07 14:03:39;;;;;;;31.50;21.75;;;;;;;16.25;100.00;101718.25;6061391;23;20081;-70
2023/05/07 14:06:05;;;;;;;32.63;21.40;;;;;;;16.18;100.00;101719.94;6085502;23;20011;-70
2023/05/07 14:08:34;;;;;;;37.00;23.27;;;;;;;16.22;100.00;101726.09;6087849;23;20137;-70
2023/05/07 14:11:02;;;;;;;32.65;21.23;;;;;;;16.33;100.00;101720.13;6088802;23;20017;-70
2023/05/07 14:18:36;;;;;;;47.10;31.77;;;;;;;16.37;100.00;101728.97;6076098;23;20390;-56
2023/05/07 14:21:02;;;;;;;50.05;31.10;;;;;;;16.56;100.00;101730.09;6064883;23;20014;-57
2023/05/07 14:26:03;;;;;;;40.10;28.08;;;;;;;16.72;100.00;101735.56;6076937;23;20023;-57
2023/05/07 14:28:28;;;;;;;47.72;30.75;;;;;;;16.78;100.00;101730.34;6087349;23;20066;-57
2023/05/07 14:30:53;;;;;;;43.75;29.15;;;;;;;16.88;100.00;101731.38;6084841;23;20014;-57
2023/05/07 14:33:19;;;;;;;45.72;29.48;;;;;;;16.89;100.00;101727.88;6083071;23;20014;-71
2023/05/07 14:35:48;;;;;;;56.63;35.25;;;;;;;16.83;100.00;101726.03;6082548;23;20069;-57
2023/05/07 14:40:43;;;;;;;45.00;29.55;;;;;;;16.80;100.00;101740.03;6072763;23;19922;-57
2023/05/07 14:43:08;;;;;;;46.85;29.95;;;;;;;16.83;100.00;101734.81;6079377;23;20029;-56
2023/05/07 14:45:33;;;;;;;49.22;31.55;;;;;;;16.92;100.00;101736.69;6077250;23;20011;-71
2023/05/07 14:47:59;;;;;;;52.35;34.10;;;;;;;16.93;100.00;101742.84;6077994;23;20122;-57
2023/05/07 14:52:55;;;;;;;52.05;32.65;;;;;;;16.94;100.00;101747.25;6081310;23;20092;-72
2023/05/07 15:00:30;;;;;;;51.35;32.03;;;;;;;16.79;100.00;101747.91;6055474;23;20035;-58
2023/05/07 15:05:32;;;;;;;52.30;32.08;;;;;;;16.89;100.00;101752.47;6078062;23;20057;-58
2023/05/07 15:07:58;;;;;;;49.65;32.58;;;;;;;16.92;100.00;101754.25;6077279;23;20011;-56
2023/05/07 15:15:23;;;;;;;55.10;35.30;;;;;;;16.91;100.00;101768.28;6079286;23;20359;-57
2023/05/07 15:17:49;;;;;;;52.70;34.50;;;;;;;16.93;100.00;101769.16;6080493;23;20037;-57
2023/05/07 15:20:15;;;;;;;55.35;35.75;;;;;;;17.01;100.00;101775.41;6077603;23;20129;-57
2023/05/07 15:22:41;;;;;;;52.08;31.88;;;;;;;17.03;100.00;101774.56;6072888;23;20386;-70
2023/05/07 15:25:06;;;;;;;50.28;32.15;;;;;;;17.02;100.00;101770.16;6083563;23;20073;-57
2023/05/07 15:30:10;;;;;;;44.85;28.17;;;;;;;17.04;100.00;101763.16;6078537;23;20026;-58
2023/05/07 15:35:07;;;;;;;40.53;26.70;;;;;;;17.12;100.00;101758.00;6074405;23;20335;-58
2023/05/07 15:37:33;;;;;;;41.92;26.60;;;;;;;17.11;100.00;101745.69;6084203;23;20056;-57
2023/05/07 15:45:06;;;;;;;37.50;25.38;;;;;;;16.70;100.00;101746.06;6083584;23;20073;-58
2023/05/07 15:47:34;;;;;;;38.47;25.38;;;;;;;16.71;100.00;101742.53;6076709;23;20538;-54
2023/05/07 15:50:00;;;;;;;44.37;26.93;;;;;;;16.80;100.00;101740.03;6080937;23;20014;-56
2023/05/07 15:52:25;;;;;;;42.83;27.23;;;;;;;16.90;100.00;101737.53;6083699;23;20030;-71
2023/05/07 15:54:50;;;;;;;39.92;26.95;;;;;;;16.99;100.00;101737.66;6085143;23;20045;-55
2023/05/07 15:59:47;;;;;;;43.45;26.98;;;;;;;17.13;100.00;101732.53;6078493;23;20081;-56
2023/05/07 16:02:13;;;;;;;42.70;27.42;;;;;;;17.20;100.00;101734.38;6100759;23;20010;-56
2023/05/07 16:04:38;;;;;;;41.38;27.63;;;;;;;17.15;100.00;101729.06;6083327;23;20038;-71
2023/05/07 16:07:04;;;;;;;41.72;26.13;;;;;;;17.06;100.00;101731.59;6078993;23;20027;-56
2023/05/07 16:12:04;;;;;;;42.53;27.13;;;;;;;16.84;100.00;101736.59;6069221;23;20093;-71
2023/05/07 16:17:02;;;;;;;40.38;25.77;;;;;;;16.86;100.00;101729.59;6084194;23;20108;-54
2023/05/07 16:19:27;;;;;;;37.13;24.00;;;;;;;16.93;100.00;101734.94;6075664;23;20002;-56
2023/05/07 16:21:53;;;;;;;45.80;27.05;;;;;;;16.99;100.00;101732.41;6078162;23;20360;-55
2023/05/07 16:26:43;;;;;;;41.60;25.25;;;;;;;17.02;100.00;101742.97;6028567;23;1171381;-56
2023/05/07 16:29:08;;;;;;;41.70;24.25;;;;;;;17.12;100.00;101752.72;6061282;23;20038;-56
2023/05/07 16:31:35;;;;;;;39.08;24.58;;;;;;;17.17;100.00;101744.88;6088021;23;20009;-56
2023/05/07 16:34:00;;;;;;;38.67;24.90;;;;;;;17.24;100.00;101749.34;6082909;23;20021;-70
2023/05/07 16:36:27;;;;;;;40.17;24.67;;;;;;;17.32;100.00;101754.69;6076273;23;20014;-55
2023/05/07 16:38:53;;;;;;;35.90;23.77;;;;;;;17.40;100.00;101757.41;6082162;23;20030;-70
2023/05/07 16:41:18;;;;;;;31.00;21.42;;;;;;;17.46;100.00;101766.25;6084634;23;20086;-56
2023/05/07 16:43:43;;;;;;;33.55;21.73;;;;;;;17.35;100.00;101762.59;6073664;23;20026;-70
2023/05/07 16:48:47;;;;;;;34.77;22.47;;;;;;;17.41;100.00;101770.59;6079989;23;20086;-70
2023/05/07 16:51:12;;;;;;;38.15;24.70;;;;;;;17.43;100.00;101774.13;6079065;23;20082;-70
2023/05/07 16:53:38;;;;;;;41.63;27.05;;;;;;;17.34;100.00;101768.78;6081360;23;20018;-55
2023/05/07 16:56:06;;;;;;;43.90;29.05;;;;;;;17.35;100.00;101771.41;6086561;23;20026;-55
2023/05/07 16:58:32;;;;;;;41.03;26.10;;;;;;;17.34;100.00;101779.31;6078140;23;20014;-70
2023/05/07 17:01:01;;;;;;;31.33;19.48;;;;;;;17.26;100.00;101780.97;6063701;23;20129;-70
2023/05/07 17:06:13;;;;;;;22.48;14.77;;;;;;;17.07;100.00;101778.13;6056490;23;20078;-96
2023/05/07 17:08:51;;;;;;;21.35;14.90;;;;;;;17.01;100.00;101780.69;6085691;23;20022;-96
2023/05/07 17:11:16;;;;;;;22.45;14.25;;;;;;;16.90;100.00;101790.19;6050369;23;20023;-54
2023/05/07 17:13:41;;;;;;;24.38;15.70;;;;;;;16.82;100.00;101779.53;6077958;23;20098;-70
2023/05/07 17:16:07;;;;;;;23.38;15.57;;;;;;;16.78;100.00;101783.00;6117679;23;20409;-70
2023/05/07 17:18:32;;;;;;;25.83;16.77;;;;;;;16.83;100.00;101779.56;6075870;23;20025;-56
2023/05/07 17:20:58;;;;;;;24.13;15.85;;;;;;;16.85;100.00;101772.56;6073942;23;20022;-70
2023/05/07 17:23:23;;;;;;;27.65;17.65;;;;;;;16.84;100.00;101777.81;6083249;23;20391;-70
2023/05/07 17:25:48;;;;;;;26.88;18.35;;;;;;;16.77;100.00;101776.84;6085443;23;20236;-56
2023/05/07 17:28:14;;;;;;;25.98;17.80;;;;;;;16.74;100.00;101776.78;6087978;23;20010;-56
2023/05/07 17:30:39;;;;;;;25.38;17.23;;;;;;;16.74;100.00;101782.06;6071711;23;20069;-70
2023/05/07 17:33:05;;;;;;;22.08;16.05;;;;;;;16.77;100.00;101779.50;6114697;23;20022;-56
2023/05/07 17:35:31;;;;;;;26.65;17.92;;;;;;;16.73;100.00;101787.31;6116804;23;20010;-57
2023/05/07 17:37:57;;;;;;;29.95;18.65;;;;;;;16.78;100.00;101799.66;6115240;23;20006;-71
2023/05/07 17:40:23;;;;;;;28.67;19.13;;;;;;;16.84;100.00;101786.59;6120367;23;20014;-96
2023/05/07 17:43:35;;;;;;;29.52;18.58;;;;;;;16.89;100.00;101801.56;6137620;23;20006;-96
2023/05/07 17:45:56;;;;;;;27.48;19.15;;;;;;;16.84;100.00;101796.22;6129460;23;20013;-96
2023/05/07 17:53:27;;;;;;;30.25;20.02;;;;;;;16.95;100.00;101802.56;6070467;23;20454;-56
2023/05/07 17:55:52;;;;;;;30.38;20.00;;;;;;;16.91;100.00;101811.28;6091172;23;20078;-96
2023/05/07 17:58:18;;;;;;;32.67;20.85;;;;;;;16.94;100.00;101815.69;6072234;23;20010;-96
2023/05/07 18:00:43;;;;;;;31.80;20.45;;;;;;;16.93;100.00;101809.56;6071746;23;20740;-95
2023/05/07 18:03:08;;;;;;;31.85;20.83;;;;;;;16.92;100.00;101806.91;6095834;23;20002;-96
2023/05/07 18:05:43;;;;;;;31.05;20.05;;;;;;;16.93;100.00;101811.28;6096973;23;20013;-96
2023/05/07 18:08:08;;;;;;;27.25;19.88;;;;;;;16.85;100.00;101811.16;6095754;23;20273;-96
2023/05/07 18:10:34;;;;;;;31.17;20.10;;;;;;;16.82;100.00;101811.13;6097304;23;20506;-96
2023/05/07 18:13:00;;;;;;;28.65;19.13;;;;;;;16.78;100.00;101810.19;6096273;23;20014;-96
2023/05/07 18:15:25;;;;;;;29.75;19.95;;;;;;;16.75;100.00;101819.81;6078845;23;20106;-70
2023/05/07 18:17:51;;;;;;;29.05;18.73;;;;;;;16.68;100.00;101818.81;6089598;23;20074;-56
2023/05/07 18:20:16;;;;;;;27.65;19.23;;;;;;;16.59;100.00;101816.06;6082366;23;20039;-56
2023/05/07 18:22:41;;;;;;;28.73;19.23;;;;;;;16.60;100.00;101823.13;6087606;23;20046;-56
2023/05/07 18:25:07;;;;;;;26.75;19.45;;;;;;;16.61;100.00;101825.78;6084227;23;20350;-58
2023/05/07 18:27:32;;;;;;;28.17;19.70;;;;;;;16.56;100.00;101823.94;6089091;23;20006;-56
2023/05/07 18:35:05;;;;;;;29.38;19.38;;;;;;;16.36;100.00;101831.50;6072923;23;20424;-55
2023/05/07 18:37:30;;;;;;;29.50;20.25;;;;;;;16.32;100.00;101833.19;6074571;23;20007;-69
2023/05/07 18:42:32;;;;;;;28.20;19.60;;;;;;;16.33;100.00;101837.59;6084971;23;20086;-55
2023/05/07 18:44:57;;;;;;;32.15;19.45;;;;;;;16.40;100.00;101844.72;6063183;23;20018;-54
2023/05/07 18:49:48;;;;;;;29.08;19.70;;;;;;;16.40;100.00;101852.63;6077871;23;20020;-70
2023/05/07 18:52:15;;;;;;;31.58;19.65;;;;;;;16.38;100.00;101848.19;6076905;23;20026;-69
2023/05/07 18:57:11;;;;;;;37.42;23.65;;;;;;;16.03;100.00;101846.75;6067447;23;20718;-71
2023/05/07 18:59:37;;;;;;;36.88;22.92;;;;;;;15.92;100.00;101845.69;6085187;23;20015;-56
2023/05/07 19:02:02;;;;;;;34.45;22.35;;;;;;;15.97;100.00;101841.38;6070847;23;20062;-70
2023/05/07 19:04:28;;;;;;;39.75;24.35;;;;;;;15.96;100.00;101847.50;6083451;23;20431;-71
2023/05/07 19:06:54;;;;;;;37.90;23.17;;;;;;;15.98;100.00;101851.94;6077010;23;20664;-54
2023/05/07 19:09:19;;;;;;;36.63;24.42;;;;;;;15.97;100.00;101850.19;6085004;23;20019;-54
2023/05/07 19:11:45;;;;;;;36.67;23.08;;;;;;;15.99;100.00;101852.84;6089241;23;20026;-55
2023/05/07 19:16:44;;;;;;;38.13;23.05;;;;;;;16.05;100.00;101849.41;6063722;23;20063;-70
2023/05/07 19:19:09;;;;;;;37.80;23.00;;;;;;;16.06;100.00;101859.06;6085030;23;20030;-56
2023/05/07 19:24:09;;;;;;;38.80;23.65;;;;;;;16.09;100.00;101859.13;6092800;23;20346;-56
2023/05/07 19:29:04;;;;;;;43.03;26.20;;;;;;;16.04;100.00;101880.06;6078797;23;20027;-56
2023/05/07 19:31:32;;;;;;;85.82;41.58;;;;;;;16.07;100.00;101882.75;6082208;23;20446;-56
2023/05/07 19:33:58;;;;;;;41.80;25.58;;;;;;;16.08;100.00;101888.91;6085286;23;20505;-56
2023/05/07 19:36:23;;;;;;;45.15;26.52;;;;;;;16.04;100.00;101898.47;6072119;23;20029;-54
2023/05/07 19:41:23;;;;;;;45.05;25.48;;;;;;;15.99;100.00;101905.41;6070298;23;20030;-54
2023/05/07 19:43:49;;;;;;;43.63;25.27;;;;;;;15.99;100.00;101902.78;6068726;23;20019;-55
2023/05/07 19:48:49;;;;;;;41.15;25.17;;;;;;;16.01;100.00;101905.44;6068258;23;20049;-55
2023/05/07 19:53:44;;;;;;;41.13;25.73;;;;;;;16.00;100.00;101907.16;6059540;23;20443;-54
2023/05/07 20:01:17;;;;;;;41.25;25.02;;;;;;;16.00;100.00;101912.41;6062997;23;20025;-54
2023/05/07 20:03:43;;;;;;;41.38;25.90;;;;;;;15.98;100.00;101914.16;6087341;23;20018;-54
2023/05/07 20:06:08;;;;;;;41.35;24.60;;;;;;;15.96;100.00;101916.75;6100382;23;20022;-54
2023/05/07 20:08:34;;;;;;;40.97;24.20;;;;;;;15.95;100.00;101914.09;6088888;23;20022;-54
2023/05/07 20:10:59;;;;;;;40.03;24.48;;;;;;;15.95;100.00;101914.97;6089207;23;20041;-70
2023/05/07 20:13:28;;;;;;;42.88;25.52;;;;;;;15.99;100.00;101921.19;6080986;23;20285;-56
2023/05/07 20:18:24;;;;;;;53.30;28.88;;;;;;;15.98;100.00;101922.91;6082175;23;20069;-55
2023/05/07 20:20:50;;;;;;;47.88;27.33;;;;;;;15.86;100.00;101920.06;6083233;23;20041;-70
2023/05/07 20:23:15;;;;;;;48.35;27.80;;;;;;;15.88;100.00;101925.34;6075153;23;20072;-69
2023/05/07 20:25:42;;;;;;;47.65;27.02;;;;;;;15.86;100.00;101924.41;6060183;23;20569;-70
2023/05/07 20:28:07;;;;;;;52.10;28.63;;;;;;;15.80;100.00;101925.19;6074950;23;20006;-54
2023/05/07 20:30:33;;;;;;;44.92;24.17;;;;;;;15.77;100.00;101923.38;6117289;23;20097;-54
2023/05/07 20:32:58;;;;;;;40.35;23.33;;;;;;;15.63;100.00;101924.84;6111678;23;20102;-54
2023/05/07 20:35:24;;;;;;;43.78;24.13;;;;;;;15.54;100.00;101922.00;6116906;23;20020;-54
2023/05/07 20:40:25;;;;;;;45.78;23.60;;;;;;;15.47;100.00;101927.13;6062673;23;20279;-70
2023/05/07 20:42:51;;;;;;;42.60;24.05;;;;;;;15.54;100.00;101924.63;6080143;23;20097;-54
2023/05/07 20:45:16;;;;;;;44.13;24.52;;;;;;;15.59;100.00;101930.88;6087909;23;20038;-54
2023/05/07 20:50:21;;;;;;;46.40;25.98;;;;;;;15.56;100.00;101920.31;6102701;23;20026;-55
2023/05/07 20:55:19;;;;;;;45.40;26.30;;;;;;;15.51;100.00;101924.56;6079611;23;20030;-70
2023/05/07 20:57:45;;;;;;;48.08;26.80;;;;;;;15.56;100.00;101936.94;6088066;23;20025;-70
2023/05/07 21:00:11;;;;;;;46.95;26.17;;;;;;;15.57;100.00;101933.47;6085526;23;20357;-56
2023/05/07 21:02:36;;;;;;;46.40;25.83;;;;;;;15.55;100.00;101926.41;6074908;23;20427;-70
2023/05/07 21:10:09;;;;;;;47.95;26.45;;;;;;;15.25;100.00;101930.16;6100470;23;20026;-55
2023/05/07 21:12:34;;;;;;;51.70;27.08;;;;;;;15.11;100.00;101928.13;6113852;23;20006;-56
2023/05/07 21:17:32;;;;;;;47.47;27.20;;;;;;;15.15;100.00;101938.69;6088458;23;20445;-55
2023/05/07 21:19:57;;;;;;;55.40;28.48;;;;;;;15.15;100.00;101936.97;6099293;23;20813;-71
2023/05/07 21:22:23;;;;;;;54.60;29.90;;;;;;;15.15;100.00;101936.06;6064063;23;1074592;-71
2023/05/07 21:24:51;;;;;;;55.13;29.08;;;;;;;15.10;100.00;101938.59;6115365;23;20543;-71
2023/05/07 21:30:02;;;;;;;57.40;30.52;;;;;;;15.08;100.00;101949.06;6095531;23;20105;-69
2023/05/07 21:32:24;;;;;;;55.70;29.77;;;;;;;15.16;100.00;101945.72;6102138;23;20030;-56
2023/05/07 21:34:49;;;;;;;52.78;27.90;;;;;;;15.19;100.00;101945.78;6116721;23;20013;-56
2023/05/07 21:37:15;;;;;;;50.05;28.38;;;;;;;15.20;100.00;101943.19;6112316;23;20037;-55
2023/05/07 21:39:40;;;;;;;50.20;28.27;;;;;;;15.23;100.00;101942.38;6117313;23;20021;-55
2023/05/07 21:42:05;;;;;;;52.35;28.70;;;;;;;15.25;100.00;101945.91;6116330;23;20452;-55
2023/05/07 21:44:30;;;;;;;55.85;27.60;;;;;;;15.24;100.00;101941.53;6106905;23;20465;-54
2023/05/07 21:46:56;;;;;;;49.05;27.25;;;;;;;15.26;100.00;101948.56;6110754;23;20048;-71
2023/05/07 21:49:21;;;;;;;45.72;26.02;;;;;;;15.25;100.00;101945.91;6114392;23;20039;-56
2023/05/07 21:51:46;;;;;;;45.65;25.00;;;;;;;15.22;100.00;101951.09;6116169;23;20412;-71
2023/05/07 21:56:41;;;;;;;49.25;26.70;;;;;;;15.16;100.00;101950.97;6089666;23;20026;-53
2023/05/07 21:59:07;;;;;;;49.83;26.92;;;;;;;15.07;100.00;101942.03;6108901;23;20020;-56
2023/05/07 22:01:32;;;;;;;56.58;29.92;;;;;;;14.99;100.00;101946.22;6115634;23;20113;-71
2023/05/07 22:03:58;;;;;;;49.92;27.80;;;;;;;14.98;100.00;101951.44;6111710;23;20014;-55
2023/05/07 22:06:24;;;;;;;58.20;29.40;;;;;;;14.91;100.00;101953.03;6111056;23;20080;-71
2023/05/07 22:08:50;;;;;;;53.28;27.88;;;;;;;14.84;100.00;101954.59;6104372;23;20105;-56
2023/05/07 22:11:15;;;;;;;55.88;28.48;;;;;;;14.75;100.00;101955.28;6101669;23;20339;-55
2023/05/07 22:13:41;;;;;;;56.47;29.20;;;;;;;14.66;100.00;101959.44;6113274;23;20010;-56
2023/05/07 22:16:06;;;;;;;59.97;29.67;;;;;;;14.58;100.00;101957.47;6115773;23;20446;-71
2023/05/07 22:18:31;;;;;;;54.00;27.98;;;;;;;14.61;100.00;101959.25;6114951;23;20207;-55
2023/05/07 22:20:56;;;;;;;56.20;28.50;;;;;;;14.68;100.00;101963.84;6105285;23;20018;-71
2023/05/07 22:23:22;;;;;;;60.00;30.23;;;;;;;14.74;100.00;101957.88;6116097;23;20391;-55
2023/05/07 22:25:47;;;;;;;54.50;28.50;;;;;;;14.76;100.00;101961.44;6118892;23;20020;-55
2023/05/07 22:28:12;;;;;;;54.50;28.52;;;;;;;14.81;100.00;101972.03;6105179;23;20454;-69
2023/05/07 22:30:38;;;;;;;61.67;30.20;;;;;;;14.81;100.00;101961.53;6106559;23;20018;-71
2023/05/07 22:33:03;;;;;;;57.63;29.52;;;;;;;14.82;100.00;101960.69;6106966;23;20018;-71
2023/05/07 22:35:28;;;;;;;56.60;29.63;;;;;;;14.85;100.00;101968.63;6117972;23;20505;-70
2023/05/07 22:42:56;;;;;;;53.40;29.25;;;;;;;14.86;100.00;101975.63;6042731;23;20018;-71
2023/05/07 22:45:21;;;;;;;52.85;28.65;;;;;;;14.87;100.00;101975.66;6083634;23;20913;-71
2023/05/07 22:47:47;;;;;;;52.08;27.55;;;;;;;14.82;100.00;101976.44;6086292;23;20488;-54
2023/05/07 22:50:12;;;;;;;56.30;29.52;;;;;;;14.72;100.00;101981.44;6084233;23;20031;-55
2023/05/07 22:57:37;;;;;;;61.33;30.02;;;;;;;14.64;100.00;101963.75;6060221;23;20463;-56
2023/05/07 23:02:34;;;;;;;61.85;30.85;;;;;;;14.70;100.00;101972.66;6070354;23;20030;-56
2023/05/07 23:05:00;;;;;;;55.97;29.92;;;;;;;14.68;100.00;101973.47;6067325;23;20099;-54
2023/05/07 23:07:26;;;;;;;62.28;30.02;;;;;;;14.64;100.00;101967.25;6093289;23;20010;-71
2023/05/07 23:09:51;;;;;;;55.05;29.20;;;;;;;14.64;100.00;101969.84;6085222;23;20039;-54